Time;durP1;ratioP1;P1;durP2;ratioP2;P2;SDS_P1;SDS_P2;PMS_P1;PMS_P2;Temp;Humidity;BMP_temperature;BMP_pressure;BME280_temperature;BME280_humidity;BME280_pressure;Samples;Min_cycle;Max_cycle;Signal;HPM_P1;HPM_P2
2023/11/13 00:00:00;;;;;;;8.18;5.03;;;17.90;87.90;;;;;;10521836;28;20493;-31
2023/11/13 00:05:04;;;;;;;8.57;5.35;;;17.90;87.80;;;;;;10521509;28;20040;-34
2023/11/13 00:10:08;;;;;;;13.52;5.25;;;17.90;87.80;;;;;;10518820;28;20044;-34
2023/11/13 00:15:12;;;;;;;7.28;4.55;;;17.90;87.90;;;;;;10515985;28;20130;-31
2023/11/13 00:20:13;;;;;;;9.23;5.18;;;17.90;87.90;;;;;;10516870;28;20040;-36
2023/11/13 00:25:16;;;;;;;8.40;5.37;;;17.90;87.80;;;;;;10519841;28;20063;-38
2023/11/13 00:30:19;;;;;;;8.75;4.50;;;17.90;87.70;;;;;;10520190;28;20547;-37
2023/11/13 00:35:21;;;;;;;8.77;4.95;;;17.80;87.70;;;;;;10522771;28;20093;-40
2023/11/13 00:40:24;;;;;;;9.60;5.70;;;17.80;87.70;;;;;;10526925;28;20080;-34
2023/11/13 00:45:27;;;;;;;6.80;3.92;;;17.80;87.60;;;;;;10533710;28;20039;-31
2023/11/13 00:50:29;;;;;;;8.52;4.68;;;17.80;87.50;;;;;;10526626;28;20042;-31
2023/11/13 00:55:31;;;;;;;8.43;4.30;;;17.80;87.50;;;;;;10525196;28;20048;-37
2023/11/13 01:00:34;;;;;;;8.33;4.20;;;17.80;87.50;;;;;;10530116;28;20131;-39
2023/11/13 01:05:36;;;;;;;6.75;4.63;;;17.80;87.40;;;;;;10527092;28;20827;-31
2023/11/13 01:10:39;;;;;;;9.07;5.10;;;17.80;87.40;;;;;;10526499;28;20449;-28
2023/11/13 01:15:42;;;;;;;7.00;4.63;;;17.80;87.20;;;;;;10529299;28;20485;-31
2023/11/13 01:20:44;;;;;;;7.60;4.15;;;17.80;87.20;;;;;;10529419;28;20080;-32
2023/11/13 01:25:46;;;;;;;7.57;4.03;;;17.80;87.10;;;;;;10527919;28;20070;-33
2023/11/13 01:30:49;;;;;;;5.88;4.15;;;17.80;87.20;;;;;;10528249;28;20044;-41
2023/11/13 01:35:51;;;;;;;5.72;3.80;;;17.80;87.20;;;;;;10526431;28;20519;-31
2023/11/13 01:40:52;;;;;;;5.43;4.00;;;17.80;87.10;;;;;;10524559;28;20067;-37
2023/11/13 01:45:58;;;;;;;7.50;4.23;;;17.80;87.00;;;;;;10531161;28;20433;-32
2023/11/13 01:51:00;;;;;;;5.07;3.60;;;17.80;86.90;;;;;;10524942;28;20044;-32
2023/11/13 01:56:03;;;;;;;5.07;3.50;;;17.80;86.90;;;;;;10524127;28;20131;-34
2023/11/13 02:01:06;;;;;;;6.20;4.18;;;17.80;86.90;;;;;;10522970;28;20036;-33
2023/11/13 02:06:08;;;;;;;5.65;3.50;;;17.80;86.70;;;;;;10522142;28;20041;-36
2023/11/13 02:11:10;;;;;;;6.37;3.60;;;17.80;86.60;;;;;;10521617;28;20439;-33
2023/11/13 02:16:13;;;;;;;5.55;3.25;;;17.80;86.50;;;;;;10518063;28;20066;-31
2023/11/13 02:21:15;;;;;;;6.25;3.40;;;17.80;86.60;;;;;;10529188;28;20047;-31
2023/11/13 02:26:19;;;;;;;3.63;2.70;;;17.80;86.60;;;;;;10527918;28;20075;-37
2023/11/13 02:31:21;;;;;;;6.03;3.42;;;17.70;86.50;;;;;;10521547;28;20624;-29
2023/11/13 02:36:23;;;;;;;5.93;3.27;;;17.70;86.40;;;;;;10524148;28;20051;-35
2023/11/13 02:41:26;;;;;;;4.88;3.67;;;17.70;86.30;;;;;;10525289;28;20427;-29
2023/11/13 02:46:28;;;;;;;3.75;2.95;;;17.70;86.20;;;;;;10523809;28;20155;-31
2023/11/13 02:51:30;;;;;;;4.40;3.10;;;17.80;86.00;;;;;;10519021;28;20132;-32
2023/11/13 02:56:33;;;;;;;3.53;2.83;;;17.70;86.00;;;;;;10523143;28;20775;-33
2023/11/13 03:01:35;;;;;;;4.75;3.25;;;17.80;86.00;;;;;;10520574;28;20044;-51
2023/11/13 03:06:37;;;;;;;3.93;3.50;;;17.80;85.90;;;;;;10518210;28;20217;-34
2023/11/13 03:11:40;;;;;;;6.50;2.90;;;17.70;86.00;;;;;;10520355;28;20127;-33
2023/11/13 03:16:42;;;;;;;4.65;2.97;;;17.80;86.10;;;;;;10524081;28;20056;-40
2023/11/13 03:21:44;;;;;;;4.70;2.95;;;17.70;85.80;;;;;;10521013;28;20052;-31
2023/11/13 03:26:47;;;;;;;3.50;2.40;;;17.80;85.70;;;;;;10526010;28;20046;-30
2023/11/13 03:31:49;;;;;;;4.10;2.65;;;17.80;85.70;;;;;;10522676;28;20040;-32
2023/11/13 03:36:51;;;;;;;2.83;2.10;;;17.70;85.70;;;;;;10519271;28;20078;-33
2023/11/13 03:41:54;;;;;;;4.22;3.00;;;17.70;85.70;;;;;;10523965;28;20043;-37
2023/11/13 03:46:55;;;;;;;4.35;2.70;;;17.70;85.60;;;;;;10520000;28;20485;-31
2023/11/13 03:51:57;;;;;;;3.47;2.60;;;17.80;85.50;;;;;;10514129;28;20124;-40
2023/11/13 04:15:31;;;;;;;3.78;2.30;;;17.60;85.70;;;;;;10514284;27;20117;-30
2023/11/13 04:20:33;;;;;;;4.07;2.33;;;17.70;85.50;;;;;;10535524;28;20050;-34
2023/11/13 04:25:35;;;;;;;3.93;2.40;;;17.70;85.40;;;;;;10534057;28;20490;-30
2023/11/13 04:30:38;;;;;;;4.20;2.47;;;17.70;85.30;;;;;;10533432;28;21018;-36
2023/11/13 04:35:41;;;;;;;4.38;2.70;;;17.60;85.30;;;;;;10537910;28;20072;-31
2023/11/13 04:40:42;;;;;;;;;;;17.70;85.40;;;;;;10526244;28;20549;-39
2023/11/13 04:45:46;;;;;;;5.03;3.05;;;17.60;85.20;;;;;;10526052;28;24673;-37
2023/11/13 04:50:48;;;;;;;4.00;2.22;;;17.60;85.20;;;;;;10536424;28;20051;-33
2023/11/13 04:55:49;;;;;;;3.65;2.67;;;17.60;85.60;;;;;;10521866;28;20155;-35
2023/11/13 05:00:53;;;;;;;4.60;3.00;;;17.60;85.50;;;;;;10535152;28;20070;-31
2023/11/13 05:05:55;;;;;;;4.93;2.75;;;17.50;86.10;;;;;;10534765;28;20373;-48
2023/11/13 05:10:57;;;;;;;3.90;2.30;;;17.70;85.40;;;;;;10514127;28;20048;-36
2023/11/13 05:16:00;;;;;;;3.67;2.40;;;17.70;85.30;;;;;;10529390;28;20071;-33
2023/11/13 05:21:02;;;;;;;4.75;2.40;;;17.70;85.10;;;;;;10533384;28;20046;-36
2023/11/13 05:26:04;;;;;;;3.87;2.30;;;17.70;84.90;;;;;;10512910;28;20044;-34
2023/11/13 05:31:07;;;;;;;3.08;2.10;;;17.70;85.00;;;;;;10495692;28;20545;-29
2023/11/13 05:36:09;;;;;;;2.97;2.00;;;17.70;84.80;;;;;;10498206;28;20507;-32
2023/11/13 05:41:11;;;;;;;3.15;2.13;;;17.80;84.80;;;;;;10501018;28;20124;-48
2023/11/13 05:46:16;;;;;;;3.80;2.67;;;17.80;84.60;;;;;;10499247;28;20047;-34
2023/11/13 05:51:20;;;;;;;3.50;1.90;;;17.80;84.60;;;;;;10497911;28;20075;-28
2023/11/13 05:56:22;;;;;;;4.30;2.50;;;17.80;84.60;;;;;;10492594;28;20048;-36
2023/11/13 06:01:31;;;;;;;5.03;3.05;;;17.70;84.80;;;;;;10501766;28;20087;-34
2023/11/13 06:06:32;;;;;;;3.30;2.30;;;17.80;84.70;;;;;;10500571;28;20057;-35
2023/11/13 06:11:34;;;;;;;4.63;3.43;;;17.80;84.70;;;;;;10493926;28;20117;-35
2023/11/13 06:16:37;;;;;;;3.20;2.27;;;17.70;84.70;;;;;;10494374;28;20141;-33
2023/11/13 06:21:39;;;;;;;8.98;5.38;;;17.80;84.80;;;;;;10500759;28;20047;-30
2023/11/13 06:26:41;;;;;;;3.88;2.88;;;17.50;85.50;;;;;;10496681;28;20386;-37
2023/11/13 06:31:44;;;;;;;3.95;2.42;;;17.70;85.50;;;;;;10484594;28;20139;-36
2023/11/13 06:36:46;;;;;;;3.42;2.20;;;17.80;85.40;;;;;;10487984;28;21704;-43
2023/11/13 06:41:48;;;;;;;2.93;2.23;;;17.70;85.60;;;;;;10488725;28;20087;-43
2023/11/13 06:46:51;;;;;;;4.03;2.20;;;17.80;85.30;;;;;;10488843;28;20048;-36
2023/11/13 06:51:53;;;;;;;3.50;2.47;;;17.80;85.30;;;;;;10488793;28;20348;-34
2023/11/13 06:56:55;;;;;;;9.17;5.67;;;17.70;85.60;;;;;;10491958;28;20421;-31
2023/11/13 07:01:59;;;;;;;5.00;2.40;;;17.70;85.80;;;;;;10489716;28;20121;-37
2023/11/13 07:07:04;;;;;;;3.10;2.20;;;17.80;85.50;;;;;;10481670;28;20044;-38
2023/11/13 07:12:07;;;;;;;5.28;2.50;;;17.60;86.60;;;;;;10487049;28;20135;-37
2023/11/13 07:17:11;;;;;;;4.32;2.92;;;17.60;86.70;;;;;;10486740;28;20044;-31
2023/11/13 07:22:13;;;;;;;3.97;2.33;;;17.60;86.50;;;;;;10484641;28;20132;-31
2023/11/13 07:27:15;;;;;;;6.38;2.20;;;17.70;86.50;;;;;;10495356;28;20473;-32
2023/11/13 07:32:18;;;;;;;3.73;1.83;;;17.60;87.50;;;;;;10490019;28;20083;-38
2023/11/13 07:37:20;;;;;;;4.13;2.15;;;17.70;87.80;;;;;;10482809;28;20060;-33
2023/11/13 07:42:22;;;;;;;3.30;2.03;;;17.60;87.80;;;;;;10480978;28;20481;-37
2023/11/13 07:47:27;;;;;;;4.80;2.40;;;17.60;87.80;;;;;;10486285;28;20103;-32
2023/11/13 07:52:30;;;;;;;7.18;2.60;;;17.20;90.00;;;;;;10490614;28;20066;-36
2023/11/13 07:57:32;;;;;;;7.07;2.22;;;17.50;88.70;;;;;;10496673;28;20048;-37
2023/11/13 08:02:35;;;;;;;3.88;2.25;;;17.40;89.60;;;;;;10486572;28;20057;-34
2023/11/13 08:07:39;;;;;;;4.38;2.20;;;17.10;90.60;;;;;;10497831;28;20125;-33
2023/11/13 08:12:43;;;;;;;4.15;2.35;;;17.40;89.80;;;;;;10475130;28;20041;-35
2023/11/13 08:17:49;;;;;;;7.45;1.95;;;17.40;90.10;;;;;;10482491;28;20139;-43
2023/11/13 08:22:51;;;;;;;5.20;1.80;;;17.20;90.70;;;;;;10487785;28;20168;-30
2023/11/13 08:27:53;;;;;;;3.97;1.60;;;17.20;90.50;;;;;;10498167;28;20503;-32
2023/11/13 08:32:56;;;;;;;2.85;1.70;;;17.40;90.20;;;;;;10492895;28;20105;-31
2023/11/13 08:37:59;;;;;;;4.90;1.65;;;17.10;91.00;;;;;;10489269;28;20129;-35
2023/11/13 08:43:06;;;;;;;4.82;2.05;;;17.20;90.80;;;;;;10489547;28;20033;-36
2023/11/13 08:48:10;;;;;;;4.68;1.77;;;17.20;90.50;;;;;;10489583;28;20040;-32
2023/11/13 08:53:15;;;;;;;5.15;2.10;;;17.30;90.30;;;;;;10493896;28;20051;-35
2023/11/13 08:58:18;;;;;;;3.28;1.52;;;17.40;90.00;;;;;;10490362;28;20044;-36
2023/11/13 09:03:21;;;;;;;4.38;1.77;;;17.40;90.20;;;;;;10494710;28;20388;-42
2023/11/13 09:08:23;;;;;;;5.65;1.90;;;17.40;90.10;;;;;;10498479;28;20040;-32
2023/11/13 09:13:25;;;;;;;4.13;1.92;;;17.40;89.90;;;;;;10489106;28;20489;-38
2023/11/13 09:18:29;;;;;;;7.83;1.70;;;16.90;90.90;;;;;;10501581;28;20040;-34
2023/11/13 09:23:31;;;;;;;3.45;1.65;;;17.20;90.80;;;;;;10494514;28;20039;-31
2023/11/13 09:28:33;;;;;;;2.00;1.20;;;17.10;91.10;;;;;;10490937;28;20080;-37
2023/11/13 09:33:37;;;;;;;3.63;1.52;;;16.80;91.80;;;;;;10495813;28;20499;-36
2023/11/13 09:38:38;;;;;;;3.72;1.50;;;16.80;91.80;;;;;;10502588;28;20049;-32
2023/11/13 09:43:41;;;;;;;3.83;1.60;;;17.00;91.30;;;;;;10497529;28;20447;-42
2023/11/13 09:48:49;;;;;;;3.10;1.73;;;17.20;90.80;;;;;;10499876;28;20052;-38
2023/11/13 09:53:51;;;;;;;2.83;1.48;;;17.20;91.00;;;;;;10500478;28;20119;-31
2023/11/13 09:58:55;;;;;;;3.00;1.53;;;17.40;90.30;;;;;;10487521;28;20156;-36
2023/11/13 10:04:01;;;;;;;3.42;1.90;;;17.20;91.00;;;;;;10482085;28;20043;-30
2023/11/13 10:09:04;;;;;;;4.43;2.10;;;17.20;90.60;;;;;;10505478;28;20044;-32
2023/11/13 10:14:12;;;;;;;3.10;1.67;;;17.10;91.20;;;;;;10492098;28;20059;-35
2023/11/13 10:19:19;;;;;;;2.03;1.35;;;17.30;90.70;;;;;;10499172;28;20042;-32
2023/11/13 10:24:22;;;;;;;5.45;1.85;;;17.40;90.40;;;;;;10498311;28;20052;-30
2023/11/13 10:29:27;;;;;;;3.05;1.60;;;17.00;91.50;;;;;;10483700;28;20451;-31
2023/11/13 10:34:43;;;;;;;3.00;1.55;;;17.20;91.10;;;;;;10503652;28;20085;-31
2023/11/13 10:39:46;;;;;;;2.83;1.67;;;17.00;91.70;;;;;;10490608;28;20043;-31
2023/11/13 10:44:49;;;;;;;2.63;1.63;;;17.10;91.50;;;;;;10501174;28;20036;-34
2023/11/13 10:49:54;;;;;;;3.55;2.10;;;17.10;91.80;;;;;;10493514;28;20040;-41
2023/11/13 10:54:59;;;;;;;4.10;1.30;;;17.30;91.30;;;;;;10492029;28;20117;-36
2023/11/13 11:00:05;;;;;;;3.22;1.20;;;17.40;91.10;;;;;;10488486;28;20553;-30
2023/11/13 11:05:13;;;;;;;5.93;1.55;;;17.40;90.90;;;;;;10493807;28;20040;-36
2023/11/13 11:10:17;;;;;;;3.75;1.35;;;16.90;94.40;;;;;;10494503;28;20048;-33
2023/11/13 11:15:34;;;;;;;5.18;2.65;;;17.10;93.50;;;;;;10495459;28;20040;-32
2023/11/13 11:20:48;;;;;;;3.75;1.40;;;16.10;98.70;;;;;;10497806;28;20060;-48
2023/11/13 11:25:51;;;;;;;8.38;2.28;;;16.10;98.30;;;;;;10491046;28;20036;-31
2023/11/13 11:30:53;;;;;;;12.10;2.95;;;15.80;99.90;;;;;;10493905;28;20072;-32
2023/11/13 11:35:57;;;;;;;5.28;1.80;;;15.40;99.90;;;;;;10497628;28;20135;-30
2023/11/13 11:40:59;;;;;;;13.68;2.65;;;14.70;99.90;;;;;;10481315;28;20061;-34
2023/11/13 11:46:04;;;;;;;15.15;3.75;;;14.30;99.90;;;;;;10493382;28;20048;-31
2023/11/13 11:51:15;;;;;;;12.93;3.28;;;14.70;99.90;;;;;;10491623;28;20043;-33
2023/11/13 11:56:17;;;;;;;7.85;2.28;;;14.40;99.90;;;;;;10488815;28;20197;-34
2023/11/13 12:01:20;;;;;;;13.25;3.03;;;14.50;99.90;;;;;;10494575;28;20043;-31
2023/11/13 12:06:23;;;;;;;6.85;2.05;;;14.20;99.90;;;;;;10485396;28;20048;-51
2023/11/13 12:11:25;;;;;;;10.80;2.17;;;14.50;99.90;;;;;;10489184;28;20045;-31
2023/11/13 12:16:27;;;;;;;10.73;1.95;;;14.30;99.90;;;;;;10480114;28;20842;-33
2023/11/13 12:21:31;;;;;;;9.50;2.63;;;14.60;99.90;;;;;;10489263;28;20450;-37
2023/11/13 12:26:32;;;;;;;10.45;2.42;;;14.40;99.90;;;;;;10491593;28;20762;-39
2023/11/13 12:31:34;;;;;;;8.88;1.85;;;14.70;99.90;;;;;;10487218;28;20165;-36
2023/11/13 12:36:38;;;;;;;14.03;2.63;;;14.80;99.90;;;;;;10487706;28;20474;-29
2023/11/13 12:41:40;;;;;;;17.95;3.22;;;14.90;99.90;;;;;;10499148;28;20036;-31
2023/11/13 12:46:47;;;;;;;18.50;2.97;;;14.90;99.90;;;;;;10479206;28;20086;-35
2023/11/13 12:51:50;;;;;;;14.55;2.53;;;15.20;99.90;;;;;;10511138;28;20071;-30
2023/11/13 12:56:54;;;;;;;17.75;3.20;;;15.00;99.90;;;;;;10503416;28;20052;-37
2023/11/13 13:01:55;;;;;;;19.70;3.10;;;15.10;99.90;;;;;;10499309;28;20071;-34
2023/11/13 13:06:59;;;;;;;14.75;2.60;;;15.10;99.90;;;;;;10483739;28;20049;-29
2023/11/13 13:12:01;;;;;;;32.08;3.20;;;15.40;99.90;;;;;;10500682;28;20083;-31
2023/11/13 13:17:07;;;;;;;;;;;15.30;99.90;;;;;;10494246;28;20075;-33
2023/11/13 13:22:12;;;;;;;31.20;5.22;;;15.30;99.90;;;;;;10497723;28;20402;-40
2023/11/13 13:27:15;;;;;;;33.95;5.72;;;15.50;99.90;;;;;;10493388;28;20048;-32
2023/11/13 13:32:16;;;;;;;45.40;5.50;;;15.30;99.90;;;;;;10502707;28;20077;-35
2023/11/13 13:37:20;;;;;;;36.78;5.68;;;15.20;99.90;;;;;;10498807;28;20036;-31
2023/11/13 13:42:22;;;;;;;51.88;6.55;;;15.30;99.90;;;;;;10487031;28;20037;-34
2023/11/13 13:47:24;;;;;;;48.72;9.55;;;15.60;99.90;;;;;;10494534;28;20040;-33
2023/11/13 13:52:30;;;;;;;43.92;6.57;;;15.50;99.90;;;;;;10497561;28;20131;-39
2023/11/13 13:57:31;;;;;;;65.65;9.75;;;15.40;99.90;;;;;;10497477;28;20050;-31
2023/11/13 14:02:33;;;;;;;38.53;6.72;;;15.40;99.90;;;;;;10494051;28;20074;-35
2023/11/13 14:07:36;;;;;;;47.05;8.25;;;15.70;99.90;;;;;;10492833;28;20081;-34
2023/11/13 14:12:38;;;;;;;56.63;8.25;;;15.60;99.90;;;;;;10491598;28;20485;-31
2023/11/13 14:17:40;;;;;;;63.28;7.75;;;15.40;99.90;;;;;;10489929;28;20504;-34
2023/11/13 14:22:46;;;;;;;77.07;9.40;;;15.40;99.90;;;;;;10484894;28;20113;-43
2023/11/13 14:27:50;;;;;;;67.75;8.60;;;15.30;99.90;;;;;;10488474;28;20044;-33
2023/11/13 14:32:54;;;;;;;66.32;7.90;;;15.60;99.90;;;;;;10493910;28;20143;-33
2023/11/13 14:37:57;;;;;;;59.25;9.52;;;15.80;99.90;;;;;;10493996;28;20036;-30
2023/11/13 14:42:59;;;;;;;60.55;8.68;;;15.70;99.90;;;;;;10491770;28;20052;-32
2023/11/13 14:48:02;;;;;;;51.53;7.93;;;15.70;99.90;;;;;;10495231;28;20044;-34
2023/11/13 14:53:05;;;;;;;55.58;8.57;;;15.30;99.90;;;;;;10494082;28;20087;-38
2023/11/13 14:58:07;;;;;;;59.10;9.07;;;15.40;99.90;;;;;;10495295;28;20469;-37
2023/11/13 15:03:09;;;;;;;41.00;5.97;;;15.60;99.90;;;;;;10496446;28;20032;-31
2023/11/13 15:08:13;;;;;;;31.50;4.47;;;15.40;99.90;;;;;;10496645;28;20086;-31
2023/11/13 15:13:15;;;;;;;18.30;2.83;;;15.30;99.90;;;;;;10478706;28;20481;-33
2023/11/13 15:18:16;;;;;;;26.52;4.75;;;15.30;98.70;;;;;;10483267;28;20118;-39
2023/11/13 15:23:20;;;;;;;23.13;3.05;;;15.20;97.10;;;;;;10492514;28;20040;-35
2023/11/13 15:28:21;;;;;;;21.60;4.10;;;15.20;99.90;;;;;;10482013;28;20063;-30
2023/11/13 15:33:23;;;;;;;17.10;2.47;;;15.10;98.80;;;;;;10488618;28;20134;-37
2023/11/13 15:38:29;;;;;;;22.52;3.70;;;15.00;99.90;;;;;;10487604;28;20122;-32
2023/11/13 15:43:31;;;;;;;22.95;2.88;;;14.80;98.90;;;;;;10492389;28;20047;-31
2023/11/13 15:48:33;;;;;;;16.38;3.50;;;14.90;99.90;;;;;;10493091;28;20055;-39
2023/11/13 15:53:38;;;;;;;26.05;2.85;;;14.70;99.50;;;;;;10486907;28;20060;-33
2023/11/13 15:58:40;;;;;;;29.95;4.30;;;14.50;99.90;;;;;;10487224;28;20040;-37
2023/11/13 16:03:42;;;;;;;19.88;2.80;;;14.60;99.90;;;;;;10483539;28;20089;-36
2023/11/13 16:08:45;;;;;;;16.92;2.83;;;14.80;99.90;;;;;;10481899;28;20532;-44
2023/11/13 16:13:49;;;;;;;27.60;3.60;;;14.40;98.10;;;;;;10478068;28;20139;-31
2023/11/13 16:18:50;;;;;;;19.55;4.13;;;14.20;98.90;;;;;;10484831;28;20059;-28
2023/11/13 16:23:55;;;;;;;19.10;3.25;;;14.30;98.60;;;;;;10479080;28;20058;-40
2023/11/13 16:28:57;;;;;;;25.15;3.53;;;14.40;99.90;;;;;;10487704;28;20052;-39
2023/11/13 16:34:00;;;;;;;31.25;3.80;;;14.70;98.90;;;;;;10493629;28;20074;-34
2023/11/13 16:39:03;;;;;;;21.65;2.92;;;14.50;99.90;;;;;;10487121;28;20044;-36
2023/11/13 16:44:05;;;;;;;23.77;4.80;;;14.20;99.90;;;;;;10497850;28;20062;-29
2023/11/13 16:49:07;;;;;;;25.88;4.05;;;14.20;99.90;;;;;;10496145;28;20612;-35
2023/11/13 16:54:11;;;;;;;39.17;5.90;;;13.90;99.90;;;;;;10483420;28;20045;-30
2023/11/13 16:59:12;;;;;;;33.90;4.05;;;13.70;99.90;;;;;;10491912;28;20041;-30
2023/11/13 17:04:14;;;;;;;32.35;4.75;;;13.80;99.90;;;;;;10489537;28;20142;-37
2023/11/13 17:09:19;;;;;;;37.88;4.95;;;13.70;99.90;;;;;;10486276;28;20039;-42
2023/11/13 17:14:21;;;;;;;38.92;5.32;;;13.70;99.90;;;;;;10491835;28;21569;-36
2023/11/13 17:19:23;;;;;;;34.45;5.57;;;13.90;99.90;;;;;;10489937;28;20079;-31
2023/11/13 17:24:26;;;;;;;38.80;6.50;;;13.70;99.90;;;;;;10499817;28;20048;-29
2023/11/13 17:29:28;;;;;;;44.85;5.43;;;13.90;99.90;;;;;;10506488;28;20109;-38
2023/11/13 17:34:29;;;;;;;31.55;4.72;;;13.70;99.90;;;;;;10501160;28;20178;-54
2023/11/13 17:39:33;;;;;;;41.40;5.47;;;14.10;99.90;;;;;;10492195;28;20068;-39
2023/11/13 17:44:34;;;;;;;41.33;6.30;;;13.50;99.90;;;;;;10500838;28;20128;-32
2023/11/13 17:49:36;;;;;;;25.48;5.22;;;13.40;99.90;;;;;;10491519;28;20124;-31
2023/11/13 17:54:39;;;;;;;38.83;5.22;;;13.80;99.90;;;;;;10490569;28;20055;-31
2023/11/13 17:59:41;;;;;;;59.70;5.85;;;13.70;99.90;;;;;;10499655;28;20592;-32
2023/11/13 18:04:43;;;;;;;43.33;6.70;;;13.50;99.90;;;;;;10486619;28;20155;-31
2023/11/13 18:09:47;;;;;;;34.47;5.03;;;13.90;99.90;;;;;;10492541;28;20063;-36
2023/11/13 18:14:48;;;;;;;35.53;5.28;;;14.20;99.90;;;;;;10492715;28;20182;-38
2023/11/13 18:19:50;;;;;;;45.22;6.38;;;13.90;99.90;;;;;;10485711;28;20044;-33
2023/11/13 18:24:53;;;;;;;42.63;6.00;;;13.60;99.90;;;;;;10489479;28;20131;-33
2023/11/13 18:29:55;;;;;;;43.70;6.32;;;13.90;99.90;;;;;;10482798;28;20476;-33
2023/11/13 18:34:57;;;;;;;42.47;6.05;;;13.70;99.90;;;;;;10489464;28;20053;-30
2023/11/13 18:40:00;;;;;;;43.95;6.35;;;13.70;99.90;;;;;;10488250;28;20072;-30
2023/11/13 18:45:03;;;;;;;42.00;5.50;;;13.50;99.90;;;;;;10490928;28;20087;-37
2023/11/13 18:50:06;;;;;;;44.75;7.90;;;13.70;99.90;;;;;;10489597;28;20041;-37
2023/11/13 18:55:09;;;;;;;43.13;5.03;;;13.50;99.90;;;;;;10482367;28;20039;-36
2023/11/13 19:00:14;;;;;;;29.38;5.63;;;13.70;99.90;;;;;;10492378;28;20110;-31
2023/11/13 19:05:16;;;;;;;36.05;5.35;;;13.60;99.90;;;;;;10482460;28;20044;-34
2023/11/13 19:10:19;;;;;;;46.17;6.60;;;13.80;99.90;;;;;;10472460;28;20042;-32
2023/11/13 19:15:22;;;;;;;55.25;8.60;;;13.60;99.90;;;;;;10489274;28;20052;-36
2023/11/13 19:20:26;;;;;;;42.90;5.85;;;13.40;99.90;;;;;;10482898;28;20525;-37
2023/11/13 19:25:29;;;;;;;46.53;6.10;;;13.40;99.90;;;;;;10493078;28;20056;-31
2023/11/13 19:30:34;;;;;;;41.78;6.20;;;14.50;99.90;;;;;;10486450;28;20040;-36
2023/11/13 19:35:37;;;;;;;53.50;6.75;;;13.50;99.90;;;;;;10481543;28;20043;-45
2023/11/13 19:40:41;;;;;;;;;;;13.30;99.90;;;;;;10499028;28;20040;-36
2023/11/13 19:45:44;;;;;;;42.13;7.32;;;13.50;99.90;;;;;;10477107;28;23617;-40
2023/11/13 19:50:46;;;;;;;36.38;4.82;;;13.70;99.90;;;;;;10495221;28;20032;-38
2023/11/13 19:55:49;;;;;;;38.10;6.38;;;13.90;99.90;;;;;;10485773;28;20179;-40
2023/11/13 20:00:51;;;;;;;41.70;5.95;;;13.80;99.90;;;;;;10494150;28;20384;-40
2023/11/13 20:05:53;;;;;;;30.88;4.45;;;13.80;99.90;;;;;;10490033;28;20086;-36
2023/11/13 20:10:56;;;;;;;34.80;6.00;;;13.70;99.90;;;;;;10498115;28;20038;-30
2023/11/13 20:15:58;;;;;;;38.45;5.13;;;13.40;99.90;;;;;;10488738;28;20136;-29
2023/11/13 20:20:59;;;;;;;39.45;5.15;;;13.60;99.90;;;;;;10488748;28;20451;-30
2023/11/13 20:26:05;;;;;;;38.13;6.18;;;13.50;99.90;;;;;;10492314;28;20227;-38
2023/11/13 20:31:07;;;;;;;33.28;5.57;;;13.40;99.90;;;;;;10499736;28;20036;-43
2023/11/13 20:36:10;;;;;;;44.67;6.82;;;13.60;99.90;;;;;;10485584;28;20052;-39
2023/11/13 20:41:13;;;;;;;;;;;13.40;99.90;;;;;;10497521;28;20526;-37
2023/11/13 20:46:15;;;;;;;25.45;4.85;;;13.60;99.90;;;;;;10492263;28;19935;-29
2023/11/13 20:51:17;;;;;;;46.40;5.90;;;13.70;99.90;;;;;;10487537;28;20052;-39
2023/11/13 20:56:22;;;;;;;25.73;4.65;;;13.60;99.90;;;;;;10499885;28;20123;-37
2023/11/13 21:01:24;;;;;;;39.35;5.10;;;14.00;99.90;;;;;;10506711;28;20041;-45
2023/11/13 21:06:26;;;;;;;34.57;5.50;;;13.70;99.90;;;;;;10490088;28;20041;-34
2023/11/13 21:11:31;;;;;;;21.63;4.68;;;13.80;99.90;;;;;;10505154;28;20048;-30
2023/11/13 21:16:33;;;;;;;38.00;5.60;;;14.10;99.90;;;;;;10486909;28;20052;-33
2023/11/13 21:21:35;;;;;;;40.88;6.30;;;13.80;99.90;;;;;;10491101;28;20043;-32
2023/11/13 21:26:38;;;;;;;32.10;5.00;;;13.40;99.90;;;;;;10496377;28;20396;-36
2023/11/13 21:31:40;;;;;;;36.22;6.22;;;13.70;99.90;;;;;;10496246;28;20133;-40
2023/11/13 21:36:41;;;;;;;41.80;6.70;;;13.60;99.90;;;;;;10497049;28;20190;-35
2023/11/13 21:41:44;;;;;;;52.95;6.50;;;13.80;99.90;;;;;;10502049;28;20052;-31
2023/11/13 21:46:46;;;;;;;44.20;6.60;;;13.50;99.90;;;;;;10484260;28;21064;-31
2023/11/13 21:51:48;;;;;;;31.48;5.35;;;13.50;99.90;;;;;;10480077;28;20051;-34
2023/11/13 21:56:51;;;;;;;30.33;4.57;;;13.90;99.90;;;;;;10486570;28;20177;-31
2023/11/13 22:01:53;;;;;;;43.30;5.95;;;13.70;99.90;;;;;;10493216;28;20551;-35
2023/11/13 22:06:55;;;;;;;39.83;6.30;;;13.80;99.90;;;;;;10484553;28;20032;-39
2023/11/13 22:11:58;;;;;;;37.60;6.20;;;14.00;99.90;;;;;;10502215;28;20449;-33
2023/11/13 22:17:00;;;;;;;32.00;4.78;;;13.80;99.90;;;;;;10491061;28;20061;-31
2023/11/13 22:22:02;;;;;;;30.27;5.35;;;13.90;99.90;;;;;;10500352;28;20044;-35
2023/11/13 22:27:06;;;;;;;31.42;4.43;;;14.00;99.90;;;;;;10500238;28;20044;-39
2023/11/13 22:32:08;;;;;;;32.17;4.30;;;13.90;99.90;;;;;;10503606;28;20052;-28
2023/11/13 22:37:10;;;;;;;41.58;5.45;;;13.80;99.90;;;;;;10498999;28;20485;-34
2023/11/13 22:42:13;;;;;;;33.08;5.10;;;13.90;99.90;;;;;;10501543;28;20084;-49
2023/11/13 22:47:15;;;;;;;47.45;7.20;;;14.00;99.90;;;;;;10467057;28;20130;-31
2023/11/13 22:52:17;;;;;;;50.05;6.05;;;13.80;99.90;;;;;;10498275;28;20057;-34
2023/11/13 22:57:20;;;;;;;36.83;6.47;;;13.90;99.90;;;;;;10497686;28;20109;-34
2023/11/13 23:02:22;;;;;;;35.78;5.43;;;13.70;99.90;;;;;;10497312;28;20055;-33
2023/11/13 23:07:24;;;;;;;42.83;6.15;;;13.90;99.90;;;;;;10480908;28;20735;-33
2023/11/13 23:12:27;;;;;;;45.28;5.90;;;13.70;99.90;;;;;;10493708;28;20068;-39
2023/11/13 23:17:29;;;;;;;49.45;6.40;;;13.80;99.90;;;;;;10494127;28;20046;-35
2023/11/13 23:22:32;;;;;;;41.67;5.78;;;13.70;99.90;;;;;;10487466;28;20106;-34
2023/11/13 23:27:35;;;;;;;36.63;7.25;;;13.70;99.90;;;;;;10493082;28;20040;-29
2023/11/13 23:32:37;;;;;;;42.00;6.55;;;13.70;99.90;;;;;;10497453;28;20435;-33
2023/11/13 23:37:39;;;;;;;44.67;7.07;;;13.70;99.90;;;;;;10491874;28;20700;-33
2023/11/13 23:42:42;;;;;;;39.17;6.07;;;13.60;99.90;;;;;;10495970;28;20675;-36
2023/11/13 23:47:44;;;;;;;55.78;6.05;;;13.70;99.90;;;;;;10498727;28;20064;-38
2023/11/13 23:52:46;;;;;;;44.95;6.68;;;13.40;99.90;;;;;;10490368;28;20056;-32
2023/11/13 23:57:49;;;;;;;57.43;8.67;;;13.70;99.90;;;;;;10486049;28;20090;-29
